createdAt,value
2018-09-17T00:00:33.733Z,7.53
2018-09-17T00:02:59.968Z,6.80
2018-09-17T00:05:26.236Z,7.50
2018-09-17T00:07:53.249Z,6.97
2018-09-17T00:10:19.515Z,7.43
2018-09-17T00:12:46.540Z,7.70
2018-09-17T00:15:12.809Z,7.50
2018-09-17T00:17:39.042Z,7.43
2018-09-17T00:20:05.357Z,7.83
2018-09-17T00:22:31.624Z,7.60
2018-09-17T00:24:57.904Z,6.83
2018-09-17T00:27:24.178Z,7.53
2018-09-17T00:29:50.417Z,8.27
2018-09-17T00:32:16.686Z,8.23
2018-09-17T00:34:42.913Z,8.67
2018-09-17T00:37:09.184Z,8.80
2018-09-17T00:39:36.201Z,10.30
2018-09-17T00:42:02.468Z,8.90
2018-09-17T00:44:29.490Z,9.03
2018-09-17T00:46:55.737Z,9.43
2018-09-17T00:49:22.014Z,9.00
2018-09-17T00:51:48.308Z,8.17
2018-09-17T00:54:15.352Z,8.90
2018-09-17T00:56:42.341Z,9.10
2018-09-17T00:59:08.569Z,8.33
2018-09-17T01:01:34.854Z,9.27
2018-09-17T01:04:01.847Z,8.70
2018-09-17T01:06:28.129Z,9.60
2018-09-17T01:08:54.365Z,8.97
2018-09-17T01:11:20.628Z,9.20
2018-09-17T01:13:46.865Z,9.03
2018-09-17T01:16:19.987Z,8.90
2018-09-17T01:18:46.242Z,10.07
2018-09-17T01:21:12.521Z,8.17
2018-09-17T01:23:38.821Z,9.00
2018-09-17T01:26:05.869Z,8.90
2018-09-17T01:28:32.846Z,8.67
2018-09-17T01:30:59.084Z,9.73
2018-09-17T01:33:25.368Z,9.10
2018-09-17T01:35:52.382Z,8.53
2018-09-17T01:38:18.647Z,7.70
2018-09-17T01:40:44.925Z,8.73
2018-09-17T01:43:11.209Z,9.07
2018-09-17T01:45:38.194Z,8.13
2018-09-17T01:48:04.525Z,8.77
2018-09-17T01:50:30.765Z,9.13
2018-09-17T01:52:57.046Z,8.53
2018-09-17T01:55:23.290Z,7.20
2018-09-17T01:57:49.638Z,8.03
2018-09-17T02:00:15.881Z,8.20
2018-09-17T02:02:42.189Z,8.97
2018-09-17T02:05:08.443Z,8.40
2018-09-17T02:07:34.755Z,8.90
2018-09-17T02:10:01.077Z,9.10
2018-09-17T02:12:27.319Z,9.13
2018-09-17T02:14:53.606Z,9.13
2018-09-17T02:17:19.890Z,10.60
2018-09-17T02:19:46.135Z,10.43
2018-09-17T02:22:12.418Z,10.60
2018-09-17T02:24:38.714Z,10.57
2018-09-17T02:27:05.010Z,10.23
2018-09-17T02:29:31.300Z,9.10
2018-09-17T02:31:57.593Z,9.97
2018-09-17T02:34:23.842Z,9.53
2018-09-17T02:36:51.083Z,9.23
2018-09-17T02:39:17.880Z,9.30
2018-09-17T02:41:44.134Z,8.40
2018-09-17T02:44:10.391Z,8.40
2018-09-17T02:46:36.673Z,8.70
2018-09-17T02:49:02.932Z,8.60
2018-09-17T02:51:29.205Z,8.03
2018-09-17T02:53:55.478Z,9.40
2018-09-17T02:56:21.711Z,9.47
2018-09-17T02:58:48.059Z,9.40
2018-09-17T03:01:14.454Z,9.23
2018-09-17T03:03:40.718Z,9.00
2018-09-17T03:06:07.013Z,10.00
2018-09-17T03:08:33.258Z,9.83
2018-09-17T03:10:59.538Z,10.07
2018-09-17T03:13:25.779Z,8.87
2018-09-17T03:15:52.106Z,9.00
2018-09-17T03:18:18.382Z,9.03
2018-09-17T03:20:44.642Z,9.73
2018-09-17T03:23:10.940Z,9.57
2018-09-17T03:25:37.229Z,8.70
2018-09-17T03:28:03.516Z,9.90
2018-09-17T03:30:30.517Z,9.43
2018-09-17T03:32:56.817Z,8.53
2018-09-17T03:35:23.092Z,9.40
2018-09-17T03:37:49.358Z,9.47
2018-09-17T03:40:16.348Z,8.30
2018-09-17T03:42:42.631Z,8.00
2018-09-17T03:45:09.683Z,9.23
2018-09-17T03:47:36.685Z,8.30
2018-09-17T03:50:02.986Z,8.70
2018-09-17T03:52:29.279Z,8.83
2018-09-17T03:54:55.546Z,9.27
2018-09-17T03:57:21.801Z,8.87
2018-09-17T03:59:48.082Z,8.70
2018-09-17T04:02:14.361Z,9.53
2018-09-17T04:04:40.630Z,9.17
2018-09-17T04:07:06.903Z,10.03
2018-09-17T04:09:33.190Z,9.50
2018-09-17T04:11:59.458Z,8.50
2018-09-17T04:14:25.748Z,8.40
2018-09-17T04:16:52.022Z,7.50
2018-09-17T04:19:18.306Z,7.73
2018-09-17T04:21:44.849Z,8.57
2018-09-17T04:24:11.116Z,9.33
2018-09-17T04:26:38.025Z,9.37
2018-09-17T04:29:04.361Z,9.00
2018-09-17T04:31:30.697Z,8.97
2018-09-17T04:33:56.952Z,9.87
2018-09-17T04:36:23.221Z,8.43
2018-09-17T04:38:49.697Z,8.10
2018-09-17T04:41:16.925Z,8.90
2018-09-17T04:43:43.185Z,7.87
2018-09-17T04:46:09.500Z,8.10
2018-09-17T04:48:35.736Z,7.90
2018-09-17T04:51:01.988Z,9.33
2018-09-17T04:53:28.267Z,10.00
2018-09-17T04:55:54.535Z,9.13
2018-09-17T04:58:20.837Z,9.30
2018-09-17T05:00:47.132Z,8.90
2018-09-17T05:03:13.415Z,9.03
2018-09-17T05:05:39.652Z,9.70
2018-09-17T05:08:05.922Z,10.13
2018-09-17T05:10:32.199Z,9.20
2018-09-17T05:12:58.877Z,9.17
2018-09-17T05:15:28.302Z,8.70
2018-09-17T05:17:54.672Z,8.83
2018-09-17T05:20:20.933Z,9.37
2018-09-17T05:22:47.278Z,10.03
2018-09-17T05:25:13.681Z,10.33
2018-09-17T05:27:39.941Z,9.97
2018-09-17T05:30:06.246Z,10.47
2018-09-17T05:32:33.505Z,10.70
2018-09-17T05:34:59.777Z,10.47
2018-09-17T05:37:26.017Z,10.60
2018-09-17T05:39:54.773Z,10.07
2018-09-17T05:42:22.798Z,10.53
2018-09-17T05:44:49.640Z,11.20
2018-09-17T05:47:15.936Z,9.03
2018-09-17T05:49:43.104Z,10.13
2018-09-17T05:52:09.386Z,9.53
2018-09-17T05:54:35.685Z,11.30
2018-09-17T05:57:02.003Z,9.67
2018-09-17T05:59:28.300Z,11.20
2018-09-17T06:01:54.557Z,11.37
2018-09-17T06:04:20.805Z,11.20
2018-09-17T06:06:47.058Z,10.07
2018-09-17T06:09:13.525Z,9.97
2018-09-17T06:11:40.335Z,10.10
2018-09-17T06:14:06.868Z,10.10
2018-09-17T06:16:33.121Z,10.50
2018-09-17T06:18:59.370Z,11.57
2018-09-17T06:21:25.656Z,12.17
2018-09-17T06:23:51.920Z,12.33
2018-09-17T06:26:18.201Z,13.17
2018-09-17T06:28:44.536Z,12.00
2018-09-17T06:31:10.790Z,13.13
2018-09-17T06:33:37.100Z,12.37
2018-09-17T06:36:03.375Z,13.17
2018-09-17T06:38:29.653Z,12.60
2018-09-17T06:40:55.920Z,13.13
2018-09-17T06:43:22.216Z,12.57
2018-09-17T06:45:48.503Z,12.07
2018-09-17T06:48:15.525Z,13.27
2018-09-17T06:50:41.769Z,12.60
2018-09-17T06:53:08.046Z,12.40
2018-09-17T06:55:34.345Z,13.43
2018-09-17T06:58:00.593Z,12.70
2018-09-17T07:00:27.657Z,11.73
2018-09-17T07:02:53.906Z,11.70
2018-09-17T07:05:20.211Z,12.37
2018-09-17T07:07:46.477Z,13.70
2018-09-17T07:10:12.734Z,11.63
2018-09-17T07:12:39.025Z,12.43
2018-09-17T07:15:05.277Z,13.37
2018-09-17T07:17:31.525Z,11.20
2018-09-17T07:19:57.817Z,13.53
2018-09-17T07:22:24.096Z,12.97
2018-09-17T07:24:51.116Z,11.27
2018-09-17T07:27:17.369Z,11.43
2018-09-17T07:29:43.632Z,13.23
2018-09-17T07:32:09.872Z,12.90
2018-09-17T07:34:36.169Z,13.10
2018-09-17T07:37:03.181Z,13.67
2018-09-17T07:39:29.462Z,14.50
2018-09-17T07:41:56.484Z,17.20
2018-09-17T07:44:22.762Z,17.43
2018-09-17T07:46:49.013Z,17.27
2018-09-17T07:49:15.282Z,15.40
2018-09-17T07:51:42.326Z,17.03
2018-09-17T07:54:08.644Z,14.70
2018-09-17T07:56:34.901Z,14.80
2018-09-17T07:59:01.986Z,14.30
2018-09-17T08:01:28.257Z,13.67
2018-09-17T08:03:54.496Z,13.57
2018-09-17T08:06:20.728Z,13.40
2018-09-17T08:08:47.048Z,13.30
2018-09-17T08:11:13.313Z,13.10
2018-09-17T08:13:40.345Z,14.00
2018-09-17T08:16:07.393Z,13.93
2018-09-17T08:18:33.646Z,15.97
2018-09-17T08:20:59.948Z,12.00
2018-09-17T08:23:26.221Z,11.27
2018-09-17T08:25:52.486Z,11.33
2018-09-17T08:28:18.756Z,12.27
2018-09-17T08:30:45.033Z,13.20
2018-09-17T08:33:11.299Z,11.20
2018-09-17T08:35:37.579Z,11.23
2018-09-17T08:38:03.812Z,10.23
2018-09-17T08:40:30.088Z,10.33
2018-09-17T08:42:56.343Z,9.83
2018-09-17T08:45:23.379Z,10.33
2018-09-17T08:47:50.378Z,9.30
2018-09-17T08:50:16.693Z,9.43
2018-09-17T08:52:43.001Z,9.73
2018-09-17T08:55:09.242Z,8.90
2018-09-17T08:57:35.590Z,10.10
2018-09-17T09:00:01.861Z,17.20
2018-09-17T09:02:28.149Z,9.47
2018-09-17T09:04:54.401Z,9.93
2018-09-17T09:07:20.745Z,10.40
2018-09-17T09:09:47.025Z,9.83
2018-09-17T09:12:13.313Z,9.57
2018-09-17T09:14:39.567Z,9.93
2018-09-17T09:17:06.648Z,8.63
2018-09-17T09:19:32.946Z,8.87
2018-09-17T09:21:59.184Z,8.17
2018-09-17T09:24:25.430Z,8.30
2018-09-17T09:26:51.735Z,8.97
2018-09-17T09:29:18.728Z,7.80
2018-09-17T09:31:45.016Z,7.00
2018-09-17T09:34:11.304Z,7.60
2018-09-17T09:36:37.571Z,8.10
2018-09-17T09:39:03.902Z,7.20
2018-09-17T09:41:30.154Z,7.17
2018-09-17T09:43:56.437Z,7.27
2018-09-17T09:46:22.752Z,8.10
2018-09-17T09:48:49.717Z,6.40
2018-09-17T09:51:18.313Z,7.30
2018-09-17T09:53:45.499Z,6.43
2018-09-17T09:56:11.860Z,6.40
2018-09-17T09:58:38.145Z,7.50
2018-09-17T10:01:05.206Z,6.93
2018-09-17T10:03:31.473Z,7.07
2018-09-17T10:05:57.724Z,6.80
2018-09-17T10:08:23.997Z,6.00
2018-09-17T10:10:57.142Z,7.00
2018-09-17T10:13:29.831Z,7.27
2018-09-17T10:15:56.595Z,5.83
2018-09-17T10:18:41.186Z,6.23
2018-09-17T10:21:07.516Z,6.23
2018-09-17T10:23:34.400Z,6.13
2018-09-17T10:26:00.662Z,6.50
2018-09-17T10:28:26.933Z,6.40
2018-09-17T10:30:53.178Z,6.87
2018-09-17T10:33:19.481Z,6.40
2018-09-17T10:35:45.732Z,6.70
2018-09-17T10:38:12.004Z,6.47
2018-09-17T10:40:38.290Z,6.70
2018-09-17T10:43:04.576Z,5.50
2018-09-17T10:45:30.882Z,6.80
2018-09-17T10:47:57.118Z,5.90
2018-09-17T10:50:23.396Z,6.63
2018-09-17T10:52:49.682Z,5.90
2018-09-17T10:55:15.967Z,7.07
2018-09-17T10:57:42.270Z,6.77
2018-09-17T11:00:09.293Z,6.13
2018-09-17T11:02:35.547Z,5.63
2018-09-17T11:05:02.635Z,6.20
2018-09-17T11:07:28.915Z,6.87
2018-09-17T11:09:55.199Z,5.80
2018-09-17T11:12:21.481Z,6.30
2018-09-17T11:14:47.781Z,5.60
2018-09-17T11:17:14.139Z,6.37
2018-09-17T11:19:40.421Z,5.60
2018-09-17T11:22:06.710Z,6.33
2018-09-17T11:24:33.732Z,5.83
2018-09-17T11:27:00.001Z,5.20
2018-09-17T11:29:27.029Z,5.43
2018-09-17T11:31:54.049Z,5.80
2018-09-17T11:34:20.313Z,6.37
2018-09-17T11:36:46.576Z,5.67
2018-09-17T11:39:12.881Z,4.87
2018-09-17T11:41:39.892Z,6.03
2018-09-17T11:44:06.171Z,5.83
2018-09-17T11:46:32.460Z,5.63
2018-09-17T11:48:58.716Z,5.60
2018-09-17T11:51:25.710Z,5.93
2018-09-17T11:53:52.006Z,5.83
2018-09-17T11:56:18.287Z,5.43
2018-09-17T11:58:44.622Z,5.67
2018-09-17T12:01:11.717Z,6.10
2018-09-17T12:03:37.986Z,5.17
2018-09-17T12:06:04.301Z,5.80
2018-09-17T12:08:30.562Z,5.53
2018-09-17T12:10:56.910Z,5.47
2018-09-17T12:13:23.185Z,4.67
2018-09-17T12:15:49.484Z,4.63
2018-09-17T12:18:15.756Z,5.13
2018-09-17T12:20:42.056Z,5.13
2018-09-17T12:23:09.069Z,5.17
2018-09-17T12:25:35.378Z,5.10
2018-09-17T12:28:01.645Z,5.00
2018-09-17T12:30:27.937Z,4.47
2018-09-17T12:32:54.225Z,4.83
2018-09-17T12:35:21.221Z,4.90
2018-09-17T12:37:47.502Z,4.67
2018-09-17T12:40:13.761Z,4.77
2018-09-17T12:42:40.064Z,5.17
2018-09-17T12:45:07.051Z,4.80
2018-09-17T12:47:33.349Z,5.10
2018-09-17T12:49:59.641Z,5.00
2018-09-17T12:52:25.877Z,5.27
2018-09-17T12:54:52.365Z,5.17
2018-09-17T12:57:18.733Z,5.10
2018-09-17T12:59:45.004Z,4.80
2018-09-17T13:02:13.209Z,4.83
2018-09-17T13:04:40.300Z,4.77
2018-09-17T13:07:06.600Z,4.50
2018-09-17T13:09:32.906Z,4.23
2018-09-17T13:11:59.310Z,4.40
2018-09-17T13:14:25.597Z,5.40
2018-09-17T13:16:51.893Z,4.17
2018-09-17T13:19:18.216Z,4.40
2018-09-17T13:21:44.452Z,4.50
2018-09-17T13:24:11.877Z,4.70
2018-09-17T13:26:38.193Z,4.37
2018-09-17T13:29:04.613Z,4.43
2018-09-17T13:31:30.911Z,4.50
2018-09-17T13:33:57.971Z,5.13
2018-09-17T13:36:24.289Z,5.13
2018-09-17T13:38:50.545Z,4.37
2018-09-17T13:41:16.846Z,4.23
2018-09-17T13:43:43.901Z,3.70
2018-09-17T13:46:10.262Z,4.50
2018-09-17T13:48:36.553Z,5.00
2018-09-17T13:51:03.036Z,4.80
2018-09-17T13:53:29.458Z,5.50
2018-09-17T13:55:55.772Z,5.37
2018-09-17T13:58:22.072Z,4.90
2018-09-17T14:00:48.330Z,5.03
2018-09-17T14:03:14.613Z,5.37
2018-09-17T14:05:40.884Z,5.30
2018-09-17T14:08:07.538Z,4.70
2018-09-17T14:10:33.839Z,5.20
2018-09-17T14:13:00.365Z,5.27
2018-09-17T14:15:26.633Z,4.80
2018-09-17T14:17:52.957Z,5.77
2018-09-17T14:20:19.975Z,5.20
2018-09-17T14:22:46.679Z,5.03
2018-09-17T14:25:12.952Z,5.63
2018-09-17T14:27:40.563Z,5.43
2018-09-17T14:30:07.053Z,6.30
2018-09-17T14:32:33.332Z,5.47
2018-09-17T14:34:59.672Z,4.63
2018-09-17T14:37:26.025Z,5.10
2018-09-17T14:39:52.485Z,5.33
2018-09-17T14:42:18.800Z,5.63
2018-09-17T14:44:45.141Z,4.90
2018-09-17T14:47:11.412Z,5.57
2018-09-17T14:49:38.111Z,5.60
2018-09-17T14:52:04.817Z,5.07
2018-09-17T14:54:31.104Z,5.10
2018-09-17T14:56:57.945Z,5.10
2018-09-17T14:59:24.309Z,4.90
2018-09-17T15:01:50.712Z,5.77
2018-09-17T15:04:17.105Z,4.93
2018-09-17T15:06:44.263Z,5.47
2018-09-17T15:09:10.585Z,5.03
2018-09-17T15:11:36.835Z,5.47
2018-09-17T15:14:04.480Z,4.97
2018-09-17T15:16:30.767Z,5.50
2018-09-17T15:18:58.927Z,5.93
2018-09-17T15:21:25.517Z,4.77
2018-09-17T15:23:51.924Z,4.60
2018-09-17T15:26:18.256Z,5.50
2018-09-17T15:28:44.461Z,4.80
2018-09-17T15:31:10.775Z,4.53
2018-09-17T15:33:37.016Z,4.77
2018-09-17T15:36:03.488Z,4.70
2018-09-17T15:38:31.034Z,4.33
2018-09-17T15:40:57.876Z,5.70
2018-09-17T15:43:26.046Z,4.70
2018-09-17T15:45:52.533Z,4.90
2018-09-17T15:48:18.834Z,5.20
2018-09-17T15:50:45.417Z,4.63
2018-09-17T15:53:11.679Z,4.80
2018-09-17T15:55:37.964Z,4.90
2018-09-17T15:58:04.405Z,4.60
2018-09-17T16:00:31.426Z,3.97
2018-09-17T16:02:57.727Z,4.90
2018-09-17T16:05:24.742Z,4.60
2018-09-17T16:07:51.058Z,4.77
2018-09-17T16:10:17.314Z,4.67
2018-09-17T16:12:43.646Z,5.60
2018-09-17T16:15:10.670Z,8.47
2018-09-17T16:17:37.769Z,6.00
2018-09-17T16:20:05.359Z,4.87
2018-09-17T16:22:34.637Z,4.20
2018-09-17T16:25:00.969Z,5.10
2018-09-17T16:27:27.217Z,4.73
2018-09-17T16:29:54.175Z,5.17
2018-09-17T16:32:20.420Z,5.23
2018-09-17T16:34:47.468Z,4.57
2018-09-17T16:37:13.744Z,4.57
2018-09-17T16:39:40.101Z,4.60
2018-09-17T16:42:06.381Z,4.90
2018-09-17T16:44:32.700Z,4.50
2018-09-17T16:47:01.337Z,4.57
2018-09-17T16:49:29.379Z,4.90
2018-09-17T16:52:00.179Z,5.03
2018-09-17T16:54:26.721Z,5.77
2018-09-17T16:56:53.841Z,4.57
2018-09-17T16:59:20.320Z,6.17
2018-09-17T17:01:46.583Z,5.90
2018-09-17T17:04:13.626Z,6.10
2018-09-17T17:06:40.620Z,6.77
2018-09-17T17:09:06.979Z,7.00
2018-09-17T17:11:33.288Z,6.40
2018-09-17T17:13:59.573Z,6.03
2018-09-17T17:16:25.875Z,6.00
2018-09-17T17:18:53.515Z,5.40
2018-09-17T17:21:22.925Z,5.60
2018-09-17T17:23:51.922Z,5.27
2018-09-17T17:26:24.503Z,5.90
2018-09-17T17:31:36.266Z,5.23
2018-09-17T17:34:03.489Z,5.80
2018-09-17T17:36:35.023Z,6.17
2018-09-17T17:39:05.373Z,6.17
2018-09-17T17:41:34.413Z,5.90
2018-09-17T17:44:02.367Z,6.27
2018-09-17T17:46:40.693Z,6.20
2018-09-17T17:49:07.879Z,7.83
2018-09-17T17:51:35.895Z,6.47
2018-09-17T17:54:06.215Z,5.60
2018-09-17T17:56:34.706Z,5.20
2018-09-17T17:59:02.396Z,5.70
2018-09-17T18:01:30.413Z,6.70
2018-09-17T18:03:57.674Z,5.63
2018-09-17T18:06:25.777Z,5.77
2018-09-17T18:08:53.797Z,6.47
2018-09-17T18:11:21.677Z,6.60
2018-09-17T18:13:53.299Z,7.13
2018-09-17T18:16:20.574Z,6.83
2018-09-17T18:18:50.300Z,8.67
2018-09-17T18:21:17.710Z,6.70
2018-09-17T18:23:45.514Z,6.37
2018-09-17T18:26:15.834Z,6.67
2018-09-17T18:28:45.172Z,7.10
2018-09-17T18:31:12.884Z,6.83
2018-09-17T18:33:41.612Z,7.27
2018-09-17T18:36:11.119Z,8.07
2018-09-17T18:38:42.439Z,7.63
2018-09-17T18:41:10.892Z,7.67
2018-09-17T18:43:44.124Z,7.20
2018-09-17T18:46:13.857Z,7.00
2018-09-17T18:48:45.544Z,7.53
2018-09-17T18:51:16.333Z,7.20
2018-09-17T18:53:55.776Z,7.30
2018-09-17T18:56:25.430Z,7.10
2018-09-17T18:58:55.628Z,6.33
2018-09-17T19:01:23.771Z,7.23
2018-09-17T19:03:52.124Z,6.70
2018-09-17T19:08:59.654Z,7.23
2018-09-17T19:11:29.797Z,8.20
2018-09-17T19:13:58.165Z,7.37
2018-09-17T19:16:28.126Z,7.27
2018-09-17T19:18:56.560Z,6.83
2018-09-17T19:21:25.639Z,6.30
2018-09-17T19:24:06.220Z,6.53
2018-09-17T19:26:35.561Z,6.77
2018-09-17T19:29:18.168Z,6.97
2018-09-17T19:31:50.283Z,8.00
2018-09-17T19:34:19.963Z,7.57
2018-09-17T19:36:48.745Z,6.83
2018-09-17T19:39:21.687Z,7.33
2018-09-17T19:41:58.616Z,7.80
2018-09-17T19:44:26.710Z,7.00
2018-09-17T19:46:53.948Z,7.47
2018-09-17T19:49:20.992Z,6.80
2018-09-17T19:52:09.706Z,7.40
2018-09-17T19:54:36.759Z,7.27
2018-09-17T19:57:07.796Z,6.60
2018-09-17T19:59:50.967Z,9.20
2018-09-17T20:02:19.289Z,9.73
2018-09-17T20:04:47.762Z,7.20
2018-09-17T20:07:14.825Z,7.10
2018-09-17T20:09:41.064Z,7.30
2018-09-17T20:12:07.320Z,8.63
2018-09-17T20:14:34.342Z,6.83
2018-09-17T20:17:00.599Z,8.37
2018-09-17T20:19:27.608Z,7.27
2018-09-17T20:21:55.779Z,8.50
2018-09-17T20:24:22.133Z,6.70
2018-09-17T20:26:48.382Z,7.77
2018-09-17T20:29:15.401Z,6.10
2018-09-17T20:31:41.741Z,6.80
2018-09-17T20:34:08.027Z,7.27
2018-09-17T20:36:42.857Z,7.33
2018-09-17T20:39:09.256Z,7.00
2018-09-17T20:41:47.098Z,6.50
2018-09-17T20:44:22.998Z,6.83
2018-09-17T20:46:57.955Z,7.27
2018-09-17T20:49:27.722Z,7.20
2018-09-17T20:51:55.053Z,7.80
2018-09-17T20:54:21.347Z,7.27
2018-09-17T20:56:48.354Z,6.37
2018-09-17T20:59:14.745Z,7.43
2018-09-17T21:01:41.134Z,8.37
2018-09-17T21:04:07.355Z,7.43
2018-09-17T21:06:33.601Z,8.10
2018-09-17T21:08:59.995Z,20.07
2018-09-17T21:11:26.472Z,8.27
2018-09-17T21:13:53.496Z,6.10
2018-09-17T21:16:19.960Z,6.50
2018-09-17T21:18:46.305Z,7.37
2018-09-17T21:21:13.482Z,6.80
2018-09-17T21:23:39.797Z,6.87
2018-09-17T21:26:08.315Z,7.53
2018-09-17T21:28:34.789Z,6.30
2018-09-17T21:31:01.086Z,6.17
2018-09-17T21:33:27.401Z,6.27
2018-09-17T21:35:53.661Z,6.07
2018-09-17T21:38:19.941Z,6.47
2018-09-17T21:40:46.255Z,7.20
2018-09-17T21:43:12.533Z,6.57
2018-09-17T21:45:39.093Z,6.90
2018-09-17T21:48:05.374Z,7.30
2018-09-17T21:50:31.799Z,6.40
2018-09-17T21:52:58.652Z,5.67
2018-09-17T21:55:24.949Z,6.63
2018-09-17T21:57:51.236Z,7.60
2018-09-17T22:00:17.527Z,6.20
2018-09-17T22:02:44.526Z,7.43
2018-09-17T22:05:10.836Z,8.13
2018-09-17T22:07:37.364Z,7.00
2018-09-17T22:10:03.771Z,7.93
2018-09-17T22:12:30.089Z,7.00
2018-09-17T22:14:56.336Z,7.77
2018-09-17T22:17:23.397Z,8.00
2018-09-17T22:19:49.645Z,7.67
2018-09-17T22:22:15.913Z,7.27
2018-09-17T22:24:42.187Z,6.83
2018-09-17T22:27:08.456Z,7.30
2018-09-17T22:29:34.725Z,7.10
2018-09-17T22:32:00.992Z,7.50
2018-09-17T22:34:27.281Z,8.07
2018-09-17T22:36:53.540Z,7.80
2018-09-17T22:39:20.548Z,7.10
2018-09-17T22:41:46.789Z,6.93
2018-09-17T22:44:13.089Z,7.00
2018-09-17T22:46:39.395Z,6.20
2018-09-17T22:49:05.665Z,7.80
2018-09-17T22:51:31.976Z,7.43
2018-09-17T22:53:58.253Z,6.83
2018-09-17T22:56:24.512Z,7.57
2018-09-17T22:58:50.778Z,6.73
2018-09-17T23:01:17.025Z,7.13
2018-09-17T23:03:43.328Z,7.00
2018-09-17T23:06:09.586Z,7.53
2018-09-17T23:08:36.610Z,7.87
2018-09-17T23:11:02.909Z,7.43
2018-09-17T23:13:29.190Z,8.00
2018-09-17T23:15:55.484Z,7.27
2018-09-17T23:18:21.758Z,7.67
2018-09-17T23:20:48.000Z,8.53
2018-09-17T23:23:14.311Z,8.30
2018-09-17T23:25:40.562Z,9.63
2018-09-17T23:28:07.597Z,7.90
2018-09-17T23:30:33.853Z,8.50
2018-09-17T23:33:00.908Z,8.00
2018-09-17T23:35:27.932Z,8.07
2018-09-17T23:37:54.177Z,8.57
2018-09-17T23:40:21.221Z,7.83
2018-09-17T23:42:48.267Z,9.30
2018-09-17T23:45:14.527Z,9.97
2018-09-17T23:47:40.779Z,8.10
2018-09-17T23:50:07.058Z,10.07
2018-09-17T23:52:33.329Z,8.90
2018-09-17T23:54:59.618Z,9.80
2018-09-17T23:57:26.641Z,9.70
2018-09-17T23:59:52.921Z,8.63
